Time;durP1;ratioP1;P1;durP2;ratioP2;P2;SDS_P1;SDS_P2;PMS_P1;PMS_P2;Temp;Humidity;BMP_temperature;BMP_pressure;BME280_temperature;BME280_humidity;BME280_pressure;Samples;Min_cycle;Max_cycle;Signal;HPM_P1;HPM_P2
2022/01/30 00:00:34;;;;;;;15.02;2.63;;;8.70;99.90;;;8.53;81.90;101981.84;5214707;28;20059;-78
2022/01/30 00:03:06;;;;;;;9.68;2.63;;;8.70;99.90;;;8.51;81.74;101978.28;5216734;28;20049;-80
2022/01/30 00:05:38;;;;;;;17.60;3.55;;;8.60;99.90;;;8.41;82.19;101969.03;5216077;28;20049;-79
2022/01/30 00:08:10;;;;;;;12.60;3.00;;;8.60;99.90;;;8.41;82.02;101971.63;5217868;28;20137;-80
2022/01/30 00:10:43;;;;;;;12.52;3.38;;;8.60;99.90;;;8.36;82.15;101978.22;5218383;28;20053;-80
2022/01/30 00:13:18;;;;;;;11.57;2.63;;;8.50;99.90;;;8.33;82.41;101983.19;5217337;28;20045;-79
2022/01/30 00:15:53;;;;;;;14.30;2.88;;;8.50;99.90;;;8.37;82.12;101984.31;5215812;28;20048;-81
2022/01/30 00:18:40;;;;;;;16.45;3.67;;;8.50;99.90;;;8.34;82.44;102005.75;5215904;28;20054;-79
2022/01/30 00:21:21;;;;;;;14.45;2.65;;;8.50;99.90;;;8.30;82.04;101993.41;5208398;28;20083;-80
2022/01/30 00:23:55;;;;;;;14.70;2.92;;;8.50;99.90;;;8.35;81.33;101996.28;5208044;28;20049;-79
2022/01/30 00:26:30;;;;;;;11.10;2.50;;;8.40;99.90;;;8.26;81.58;101993.09;5207050;28;20092;-80
2022/01/30 00:29:03;;;;;;;21.88;3.20;;;8.40;99.90;;;8.26;81.85;101996.59;5207086;28;20050;-80
2022/01/30 00:31:38;;;;;;;13.40;2.85;;;8.40;99.90;;;8.21;81.34;102003.19;5207314;28;20128;-79
2022/01/30 00:34:10;;;;;;;13.18;3.05;;;8.40;99.90;;;8.19;81.99;102004.81;5089016;28;20204;-80
2022/01/30 00:36:42;;;;;;;10.35;2.88;;;8.40;99.90;;;8.19;81.50;102009.09;5159415;28;20058;-79
2022/01/30 00:39:14;;;;;;;7.32;2.85;;;8.30;99.90;;;8.21;81.11;102003.19;5124101;28;20058;-80
2022/01/30 00:41:46;;;;;;;14.98;3.13;;;8.30;99.90;;;8.20;81.56;102016.09;5166410;28;20523;-79
2022/01/30 00:44:18;;;;;;;12.73;2.72;;;8.30;99.90;;;8.20;81.41;102016.97;5166224;28;20055;-80
2022/01/30 00:46:52;;;;;;;13.95;3.30;;;8.30;99.90;;;8.11;81.36;102009.50;5149441;28;20500;-80
2022/01/30 00:49:24;;;;;;;13.73;2.90;;;8.30;99.90;;;8.11;81.71;102019.91;5165993;28;20093;-80
2022/01/30 00:51:56;;;;;;;9.90;2.50;;;8.20;99.90;;;8.07;81.80;102019.59;5166400;28;20050;-80
2022/01/30 00:54:28;;;;;;;13.25;2.95;;;8.20;99.90;;;8.08;81.93;102027.47;5165757;28;20058;-79
2022/01/30 00:57:00;;;;;;;14.77;3.38;;;8.20;99.90;;;7.95;81.55;102016.22;5166444;28;20489;-80
2022/01/30 00:59:32;;;;;;;8.73;2.67;;;8.20;99.90;;;7.94;82.00;102022.22;5166168;28;20582;-79
2022/01/30 01:02:05;;;;;;;13.82;2.58;;;8.10;99.90;;;7.88;81.82;102033.97;5166337;28;20047;-81
2022/01/30 01:04:37;;;;;;;7.72;3.20;;;8.10;99.90;;;7.85;81.77;102027.72;5165185;28;20538;-80
2022/01/30 01:07:15;;;;;;;12.27;3.85;;;8.00;99.90;;;7.80;82.13;102023.91;5166420;28;20484;-79
2022/01/30 01:09:56;;;;;;;11.07;3.08;;;8.00;99.90;;;7.76;82.26;102022.81;5166470;28;20054;-80
2022/01/30 01:12:51;;;;;;;16.90;2.97;;;7.90;99.90;;;7.76;81.81;102022.81;5166355;28;20046;-80
2022/01/30 01:23:57;;;;;;;11.20;2.92;;;7.80;99.90;;;7.53;82.35;102033.38;5189931;28;20132;-80
2022/01/30 01:26:29;;;;;;;12.82;2.72;;;7.80;99.90;;;7.50;82.63;102028.88;5175258;28;20321;-81
2022/01/30 01:29:01;;;;;;;11.65;3.13;;;7.70;99.90;;;7.45;82.68;102038.06;5190330;28;20050;-81
2022/01/30 01:31:33;;;;;;;15.00;3.05;;;7.60;99.90;;;7.41;82.84;102032.56;5187225;28;20045;-80
2022/01/30 01:34:21;;;;;;;13.80;2.65;;;7.70;99.90;;;7.37;82.75;102038.31;5188991;28;20042;-81
2022/01/30 01:36:53;;;;;;;12.70;2.78;;;7.60;99.90;;;7.34;82.83;102039.03;5188306;28;20043;-80
2022/01/30 01:39:25;;;;;;;9.90;2.67;;;7.60;99.90;;;7.24;83.73;102032.34;5190558;28;20145;-80
2022/01/30 01:41:57;;;;;;;9.90;2.85;;;7.50;99.90;;;7.16;83.39;102041.25;5189407;28;20038;-80
2022/01/30 01:44:36;;;;;;;15.73;2.92;;;7.50;99.90;;;7.20;83.63;102035.50;5190099;28;20048;-81
2022/01/30 01:47:10;;;;;;;17.10;3.00;;;7.40;99.90;;;7.16;83.84;102036.06;5191326;28;20045;-80
2022/01/30 01:49:46;;;;;;;14.13;3.05;;;7.40;99.90;;;7.17;83.85;102031.78;5191618;28;20105;-79
2022/01/30 01:52:20;;;;;;;17.45;3.55;;;7.40;99.90;;;7.08;84.01;102040.75;5192049;28;20054;-80
2022/01/30 01:54:54;;;;;;;11.43;2.80;;;7.30;99.90;;;7.06;84.01;102039.75;5191172;28;20108;-81
2022/01/30 01:57:29;;;;;;;11.27;2.55;;;7.30;99.90;;;7.03;84.07;102036.03;5191897;28;20053;-80
2022/01/30 02:00:01;;;;;;;14.00;3.05;;;7.30;99.90;;;7.04;83.80;102035.22;5195103;28;20082;-80
2022/01/30 02:02:33;;;;;;;14.07;2.53;;;7.30;99.90;;;7.03;84.38;102041.22;5192728;28;20050;-79
2022/01/30 02:05:09;;;;;;;11.02;3.22;;;7.20;99.90;;;6.99;84.09;102040.13;5188563;28;20060;-80
2022/01/30 02:08:12;;;;;;;14.32;2.58;;;7.20;99.90;;;6.99;83.61;102036.63;5188645;28;20064;-79
2022/01/30 02:10:52;;;;;;;18.00;3.22;;;7.20;99.90;;;6.95;83.50;102024.25;5188611;28;20042;-79
2022/01/30 02:25:15;;;;;;;16.33;3.40;;;7.10;99.90;;;6.82;83.51;102035.44;5187489;28;20153;-81
2022/01/30 02:27:47;;;;;;;13.57;3.40;;;7.00;99.90;;;6.80;84.17;102045.72;5187167;28;20104;-79
2022/01/30 02:30:20;;;;;;;15.48;3.55;;;7.00;99.90;;;6.76;83.63;102040.22;5188194;28;20061;-80
2022/01/30 02:32:54;;;;;;;8.45;2.10;;;7.00;99.90;;;6.71;83.90;102055.44;5187892;28;20050;-81
2022/01/30 02:35:26;;;;;;;12.75;3.25;;;6.90;99.90;;;6.72;84.27;102052.06;5215891;22;20052;-81
2022/01/30 02:38:01;;;;;;;16.88;2.78;;;6.90;99.90;;;6.68;84.04;102057.81;5200982;28;20049;-80
2022/01/30 02:40:38;;;;;;;12.95;2.35;;;6.90;99.90;;;6.71;83.55;102059.72;5196639;28;20046;-81
2022/01/30 02:43:13;;;;;;;13.32;2.65;;;6.90;99.90;;;6.70;84.09;102074.38;5191654;28;20049;-80
2022/01/30 02:45:51;;;;;;;16.77;3.00;;;6.90;99.90;;;6.63;83.99;102066.94;5191320;28;20132;-80
2022/01/30 02:48:31;;;;;;;13.60;2.67;;;6.80;99.90;;;6.58;83.88;102068.31;5209888;28;20061;-81
2022/01/30 02:51:11;;;;;;;12.40;2.55;;;6.80;99.90;;;6.54;84.43;102071.50;5210367;28;20059;-80
2022/01/30 02:53:54;;;;;;;13.63;3.35;;;6.80;99.90;;;6.51;84.73;102072.16;5209892;28;20053;-77
2022/01/30 02:56:26;;;;;;;14.57;2.95;;;6.80;99.90;;;6.52;84.88;102079.16;5209311;28;20099;-81
2022/01/30 02:58:58;;;;;;;14.80;2.47;;;6.70;99.90;;;6.55;84.60;102086.25;5209023;28;20424;-81
2022/01/30 03:01:30;;;;;;;13.00;2.55;;;6.80;99.90;;;6.50;84.63;102091.09;5209011;28;20458;-80
2022/01/30 03:04:02;;;;;;;9.02;2.38;;;6.70;99.90;;;6.51;84.42;102094.56;5208348;28;20057;-80
2022/01/30 03:06:34;;;;;;;14.43;2.35;;;6.70;99.90;;;6.45;85.14;102092.44;5199686;28;20570;-79
2022/01/30 03:09:09;;;;;;;9.55;2.47;;;6.70;99.90;;;6.41;84.89;102090.44;5202222;28;20056;-80
2022/01/30 03:11:41;;;;;;;15.50;2.30;;;6.70;99.90;;;6.41;84.59;102090.44;5208900;28;20423;-81
2022/01/30 03:14:13;;;;;;;13.80;2.63;;;6.70;99.90;;;6.44;84.27;102088.06;5208178;28;20058;-80
2022/01/30 03:16:44;;;;;;;12.82;2.88;;;6.70;99.90;;;6.40;85.09;102082.56;5209293;28;20052;-80
2022/01/30 03:19:16;;;;;;;11.15;2.70;;;6.60;99.90;;;6.39;84.68;102085.91;5209137;28;20049;-80
2022/01/30 03:21:48;;;;;;;10.65;2.88;;;6.60;99.90;;;6.37;85.32;102084.91;5209483;28;20045;-81
2022/01/30 03:24:22;;;;;;;14.55;2.60;;;6.60;99.90;;;6.33;84.78;102077.75;5208769;28;20056;-79
2022/01/30 03:26:54;;;;;;;9.75;2.70;;;6.60;99.90;;;6.29;85.10;102078.28;5209184;28;20418;-78
2022/01/30 03:29:26;;;;;;;22.85;2.65;;;6.50;99.90;;;6.28;85.41;102081.69;5208963;28;20049;-80
2022/01/30 03:31:58;;;;;;;11.65;2.95;;;6.60;99.90;;;6.30;85.47;102086.16;5209136;28;20068;-81
2022/01/30 03:34:29;;;;;;;9.40;2.25;;;6.60;99.90;;;6.32;84.68;102086.28;5209258;28;20049;-81
2022/01/30 03:37:01;;;;;;;16.08;2.70;;;6.60;99.90;;;6.33;84.68;102086.41;5209033;28;20148;-80
2022/01/30 03:39:35;;;;;;;16.33;3.05;;;6.60;99.90;;;6.29;84.67;102080.88;5209410;28;20064;-79
2022/01/30 03:42:09;;;;;;;11.02;2.85;;;6.60;99.90;;;6.25;85.19;102083.22;5209518;28;20045;-80
2022/01/30 03:44:41;;;;;;;12.35;2.60;;;6.60;99.90;;;6.29;84.63;102091.25;5209302;28;20060;-80
2022/01/30 03:47:13;;;;;;;10.85;2.53;;;6.60;99.90;;;6.30;84.86;102082.69;5209822;28;20480;-81
2022/01/30 03:49:45;;;;;;;11.95;3.38;;;6.50;99.90;;;6.28;84.48;102086.84;5209551;28;20099;-81
2022/01/30 03:52:17;;;;;;;9.18;2.75;;;6.50;99.90;;;6.25;84.24;102083.22;5208758;28;20053;-80
2022/01/30 03:54:51;;;;;;;19.60;2.55;;;6.50;99.90;;;6.27;84.31;102090.25;5209425;28;20468;-80
2022/01/30 03:57:23;;;;;;;12.48;2.47;;;6.50;99.90;;;6.28;84.12;102092.03;5209636;28;20049;-80
2022/01/30 03:59:55;;;;;;;12.88;2.80;;;6.50;99.90;;;6.34;84.27;102090.78;5209142;28;20053;-80
2022/01/30 04:02:27;;;;;;;13.40;2.30;;;6.50;99.90;;;6.29;84.54;102096.44;5211905;28;20554;-80
2022/01/30 04:04:59;;;;;;;12.07;2.85;;;6.50;99.90;;;6.31;84.66;102092.25;5214836;28;20056;-80
2022/01/30 04:07:32;;;;;;;15.27;2.38;;;6.60;99.90;;;6.34;84.92;102093.38;5213418;28;20049;-80
2022/01/30 04:10:09;;;;;;;13.43;2.83;;;6.50;99.90;;;6.37;84.54;102100.47;5208323;28;20140;-80
2022/01/30 04:12:43;;;;;;;12.63;2.55;;;6.60;99.90;;;6.37;84.04;102092.69;5208823;28;20049;-80
2022/01/30 04:15:15;;;;;;;14.02;2.85;;;6.60;99.90;;;6.44;83.69;102108.78;5204376;28;20046;-80
2022/01/30 04:17:48;;;;;;;16.33;2.30;;;6.60;99.90;;;6.36;84.11;102104.75;5190508;28;20060;-79
2022/01/30 04:20:20;;;;;;;13.45;2.95;;;6.60;99.90;;;6.34;84.06;102108.91;5209379;28;20052;-81
2022/01/30 04:22:52;;;;;;;10.68;2.70;;;6.60;99.90;;;6.37;84.03;102103.94;5208799;28;20049;-80
2022/01/30 04:25:26;;;;;;;16.88;2.70;;;6.60;99.90;;;6.40;84.28;102108.47;5208614;28;20057;-81
2022/01/30 04:27:58;;;;;;;13.57;2.05;;;6.60;99.90;;;6.39;84.00;102111.81;5209074;28;20401;-80
2022/01/30 04:30:31;;;;;;;13.27;2.42;;;6.60;99.90;;;6.39;83.58;102117.94;5208898;28;20054;-80
2022/01/30 04:33:04;;;;;;;9.45;2.22;;;6.60;99.90;;;6.40;83.57;102118.84;5202829;28;20050;-80
2022/01/30 04:35:37;;;;;;;14.75;3.10;;;6.60;99.90;;;6.42;83.52;102114.66;5187488;28;20125;-80
2022/01/30 04:38:24;;;;;;;16.20;2.45;;;6.60;99.90;;;6.42;83.63;102122.41;5188421;28;20081;-80
2022/01/30 04:58:17;;;;;;;16.27;2.67;;;6.50;99.90;;;6.29;84.26;102153.41;5328130;27;20381;-72
2022/01/30 05:01:00;;;;;;;13.00;2.40;;;6.50;99.90;;;6.29;84.44;102154.31;5306419;28;20127;-71
2022/01/30 05:03:42;;;;;;;15.13;1.88;;;6.50;99.90;;;6.32;83.89;102161.38;5306763;28;20048;-71
2022/01/30 05:06:18;;;;;;;14.48;1.92;;;6.50;99.90;;;6.31;83.87;102169.94;5306504;28;20092;-72
2022/01/30 05:08:50;;;;;;;16.52;2.47;;;6.50;99.90;;;6.24;84.17;102166.91;5306456;28;20047;-70
2022/01/30 05:11:22;;;;;;;9.93;2.53;;;6.50;99.90;;;6.23;84.63;102165.09;5306382;28;20427;-70
2022/01/30 05:13:57;;;;;;;11.70;2.38;;;6.50;99.90;;;6.29;84.14;102171.53;5305886;28;20055;-69
2022/01/30 05:16:33;;;;;;;9.18;2.05;;;6.50;99.90;;;6.21;83.55;102179.63;5306582;27;20053;-72
2022/01/30 05:19:06;;;;;;;9.35;1.67;;;6.50;99.90;;;6.18;83.93;102176.81;5306641;27;20087;-71
2022/01/30 05:21:39;;;;;;;12.02;2.88;;;6.40;99.90;;;6.23;83.91;102166.78;5306169;28;20101;-71
2022/01/30 05:24:13;;;;;;;11.40;2.00;;;6.40;99.90;;;6.25;84.41;102171.28;5306257;27;20479;-71
2022/01/30 05:26:46;;;;;;;10.30;1.92;;;6.50;99.90;;;6.27;83.75;102173.13;5305916;27;20047;-70
2022/01/30 05:29:20;;;;;;;14.63;1.95;;;6.50;99.90;;;6.29;83.91;102176.72;5306017;28;20048;-71
2022/01/30 05:31:53;;;;;;;15.02;2.42;;;6.50;99.90;;;6.28;83.91;102174.91;5306056;28;20043;-71
2022/01/30 05:34:25;;;;;;;17.17;2.25;;;6.50;99.90;;;6.24;83.94;102179.84;5305515;28;20051;-70
2022/01/30 05:36:58;;;;;;;10.30;1.90;;;6.50;99.90;;;6.24;83.52;102185.03;5305804;27;20047;-70
2022/01/30 05:39:31;;;;;;;13.95;2.22;;;6.50;99.90;;;6.24;83.81;102187.63;5306315;28;20047;-71
2022/01/30 05:42:04;;;;;;;9.32;1.65;;;6.50;99.90;;;6.22;83.42;102190.88;5306184;27;20510;-71
2022/01/30 05:44:46;;;;;;;15.52;1.90;;;6.40;99.90;;;6.16;83.57;102180.06;5305167;28;20483;-71
2022/01/30 05:47:25;;;;;;;16.20;2.08;;;6.40;99.90;;;6.13;83.68;102190.19;5305622;28;20048;-71
2022/01/30 05:49:58;;;;;;;16.05;2.55;;;6.40;99.90;;;6.11;83.68;102190.09;5305908;28;20071;-70
2022/01/30 05:52:30;;;;;;;14.02;2.00;;;6.30;99.90;;;6.07;84.23;102189.75;5305793;28;20415;-70
2022/01/30 05:55:02;;;;;;;8.35;1.77;;;6.30;99.90;;;6.09;84.65;102186.47;5304859;27;20047;-70
2022/01/30 05:57:34;;;;;;;9.63;1.85;;;6.30;99.90;;;6.05;84.47;102188.72;5305284;28;20051;-71
2022/01/30 06:00:13;;;;;;;15.98;2.58;;;6.30;99.90;;;6.15;84.67;102179.19;5305536;28;20047;-70
2022/01/30 06:02:47;;;;;;;7.63;2.08;;;6.40;99.90;;;6.19;84.34;102193.22;5304453;28;20062;-70
2022/01/30 06:05:21;;;;;;;12.02;2.40;;;6.40;99.90;;;6.21;84.76;102200.34;5304821;28;20051;-71
2022/01/30 06:07:55;;;;;;;15.15;2.28;;;6.40;99.90;;;6.23;84.45;102203.94;5300463;28;20408;-72
2022/01/30 06:10:28;;;;;;;14.68;2.05;;;6.40;99.90;;;6.23;84.69;102206.53;5291110;28;20092;-70
2022/01/30 06:13:00;;;;;;;17.58;2.92;;;6.50;99.90;;;6.25;84.29;102207.53;5291094;28;20053;-71
2022/01/30 06:15:33;;;;;;;13.48;2.17;;;6.50;99.90;;;6.30;84.07;102213.06;5290453;28;20044;-74
2022/01/30 06:18:05;;;;;;;12.25;1.90;;;6.50;99.90;;;6.24;84.28;102218.69;5290930;28;20051;-70
2022/01/30 06:20:37;;;;;;;15.45;2.47;;;6.50;99.90;;;6.32;84.22;102228.72;5291035;28;20048;-70
2022/01/30 06:23:09;;;;;;;11.25;1.88;;;6.50;99.90;;;6.28;84.53;102231.88;5291081;28;20419;-70
2022/01/30 06:25:41;;;;;;;10.38;1.92;;;6.50;99.90;;;6.31;84.44;102235.59;5290176;28;20044;-70
2022/01/30 06:28:13;;;;;;;10.07;2.35;;;6.50;99.90;;;6.31;83.79;102227.81;5290595;28;20047;-71
2022/01/30 06:30:46;;;;;;;9.93;2.25;;;6.50;99.90;;;6.27;84.00;102232.69;5290855;28;20052;-71
2022/01/30 06:33:18;;;;;;;16.92;2.00;;;6.50;99.90;;;6.28;84.44;102237.06;5291040;28;20401;-71
2022/01/30 06:35:50;;;;;;;8.52;1.65;;;6.50;99.90;;;6.30;83.77;102251.03;5290231;28;20411;-71
2022/01/30 06:38:22;;;;;;;11.07;1.90;;;6.50;99.90;;;6.33;83.80;102246.09;5290821;28;20044;-70
2022/01/30 06:40:54;;;;;;;14.40;2.25;;;6.50;99.90;;;6.31;82.95;102251.13;5290478;28;20053;-70
2022/01/30 06:43:26;;;;;;;10.77;1.73;;;6.50;99.90;;;6.23;83.31;102253.16;5290697;28;20055;-70
2022/01/30 06:46:00;;;;;;;13.60;2.10;;;6.50;99.90;;;6.18;82.94;102246.72;5289995;28;20058;-70
2022/01/30 06:48:32;;;;;;;11.90;2.33;;;6.40;99.90;;;6.16;83.11;102256.06;5290603;28;20484;-70
2022/01/30 06:51:05;;;;;;;13.10;2.67;;;6.40;99.90;;;6.09;83.22;102251.22;5290548;28;20047;-71
2022/01/30 06:53:37;;;;;;;15.68;1.67;;;6.40;99.90;;;6.09;83.00;102260.66;5290140;28;20055;-70
2022/01/30 06:56:09;;;;;;;9.55;2.15;;;6.30;99.90;;;6.09;83.50;102253.81;5289367;28;20047;-71
2022/01/30 06:58:41;;;;;;;11.82;1.77;;;6.30;99.90;;;6.06;83.27;102261.31;5290179;28;20043;-70
2022/01/30 07:01:14;;;;;;;8.55;1.48;;;6.30;99.90;;;6.07;82.74;102262.25;5290185;28;20070;-71
2022/01/30 07:03:46;;;;;;;13.27;2.10;;;6.30;99.90;;;6.13;82.56;102257.50;5290415;28;20053;-70
2022/01/30 07:06:18;;;;;;;10.48;1.92;;;6.30;99.90;;;6.14;82.65;102269.69;5290266;28;20411;-71
2022/01/30 07:08:50;;;;;;;11.25;1.42;;;6.30;99.90;;;6.14;82.29;102265.41;5290307;28;20404;-71
2022/01/30 07:11:22;;;;;;;9.25;1.67;;;6.40;99.90;;;6.08;81.91;102267.53;5290071;28;20052;-71
2022/01/30 07:13:54;;;;;;;14.55;1.90;;;6.40;99.90;;;6.07;81.90;102273.50;5289856;28;20046;-71
2022/01/30 07:16:27;;;;;;;10.60;1.65;;;6.30;99.90;;;6.11;82.00;102283.28;5289929;28;20043;-70
2022/01/30 07:18:59;;;;;;;13.18;1.80;;;6.30;99.90;;;6.14;81.64;102275.78;5289791;28;20138;-72
2022/01/30 07:21:31;;;;;;;14.32;2.28;;;6.30;99.90;;;6.18;81.20;102288.16;5289491;28;20047;-73
2022/01/30 07:24:04;;;;;;;12.82;2.00;;;6.40;99.90;;;6.19;81.26;102279.63;5289721;28;20428;-71
2022/01/30 07:26:36;;;;;;;12.23;1.65;;;6.40;99.90;;;6.16;81.56;102284.56;5289564;28;20054;-72
2022/01/30 07:29:08;;;;;;;12.05;2.28;;;6.40;99.90;;;6.18;81.27;102288.16;5289835;28;20415;-71
2022/01/30 07:31:41;;;;;;;12.98;1.95;;;6.40;99.90;;;6.21;80.40;102283.22;5290038;28;20050;-71
2022/01/30 07:34:13;;;;;;;13.75;1.70;;;6.40;99.90;;;6.20;80.68;102286.59;5289341;28;20051;-69
2022/01/30 07:36:46;;;;;;;7.03;1.83;;;6.40;99.90;;;6.26;81.03;102286.16;5289621;28;20381;-70
2022/01/30 07:39:18;;;;;;;14.73;1.95;;;6.40;99.90;;;6.29;80.34;102272.53;5289585;28;20047;-70
2022/01/30 07:41:50;;;;;;;3.92;1.25;;;6.50;99.90;;;6.28;80.58;102284.59;5289627;28;20404;-70
2022/01/30 07:44:22;;;;;;;10.18;1.80;;;6.50;99.90;;;6.25;80.66;102290.41;5289438;28;20047;-70
2022/01/30 07:46:55;;;;;;;8.32;1.42;;;6.50;99.90;;;6.24;80.81;102283.44;5289485;28;20044;-71
2022/01/30 07:49:27;;;;;;;9.75;1.35;;;6.40;99.90;;;6.21;80.42;102288.41;5289379;28;20498;-71
2022/01/30 07:51:59;;;;;;;9.27;1.83;;;6.40;99.90;;;6.24;80.68;102287.72;5289543;28;20052;-72
2022/01/30 07:54:34;;;;;;;10.98;2.25;;;6.50;99.90;;;6.27;81.14;102287.06;5289106;28;20047;-72
2022/01/30 07:57:07;;;;;;;7.68;1.77;;;6.50;99.90;;;6.27;81.51;102290.56;5288804;28;20094;-70
2022/01/30 07:59:39;;;;;;;7.40;1.90;;;6.50;99.90;;;6.31;81.11;102295.16;5289268;28;20048;-70
2022/01/30 08:02:12;;;;;;;4.65;1.65;;;6.50;99.90;;;6.31;81.22;102287.38;5288810;28;20055;-71
2022/01/30 08:04:44;;;;;;;12.27;1.83;;;6.50;99.90;;;6.45;80.65;102293.59;5288760;28;20044;-73
2022/01/30 08:07:16;;;;;;;13.05;1.77;;;6.50;99.90;;;6.45;80.19;102301.38;5289197;28;20048;-72
2022/01/30 08:09:48;;;;;;;11.15;1.58;;;6.60;99.90;;;6.47;80.08;102305.00;5288993;28;20475;-71
2022/01/30 08:12:20;;;;;;;9.98;1.77;;;6.60;99.90;;;6.41;79.74;102312.31;5288943;28;20048;-70
2022/01/30 08:14:52;;;;;;;6.55;1.55;;;6.60;99.90;;;6.40;80.44;102313.13;5288947;28;20105;-70
2022/01/30 08:17:25;;;;;;;16.10;2.30;;;6.60;99.90;;;6.39;80.95;102319.97;5288880;28;20048;-70
2022/01/30 08:19:57;;;;;;;13.55;2.88;;;6.60;99.90;;;6.45;80.61;102322.09;5288794;28;20052;-70
2022/01/30 08:22:31;;;;;;;9.20;2.22;;;6.60;99.90;;;6.48;80.18;102319.75;5288694;28;20047;-70
2022/01/30 08:25:03;;;;;;;8.40;2.00;;;6.60;99.90;;;6.51;79.94;102319.97;5288580;28;20092;-71
2022/01/30 08:27:35;;;;;;;9.95;1.80;;;6.60;99.90;;;6.47;79.86;102320.56;5288778;28;20047;-71
2022/01/30 08:30:09;;;;;;;9.57;2.58;;;6.60;99.90;;;6.50;79.69;102325.94;5288790;28;20043;-71
2022/01/30 08:32:44;;;;;;;11.00;1.60;;;6.60;99.90;;;6.54;80.16;102325.41;5288322;28;20050;-71
2022/01/30 08:35:18;;;;;;;8.00;1.33;;;6.70;99.90;;;6.52;79.97;102329.59;5287016;22;20512;-71
2022/01/30 08:37:50;;;;;;;7.75;1.42;;;6.60;99.90;;;6.56;79.44;102329.00;5238953;28;20617;-70
2022/01/30 08:40:24;;;;;;;13.32;1.58;;;6.70;99.90;;;6.63;79.12;102326.09;5246200;28;20052;-72
2022/01/30 08:42:56;;;;;;;7.55;2.00;;;6.70;99.90;;;6.64;79.25;102343.44;5246484;28;20496;-69
2022/01/30 08:45:28;;;;;;;15.85;2.22;;;6.80;99.90;;;6.67;79.12;102343.69;5245537;28;20052;-70
2022/01/30 08:48:01;;;;;;;12.65;1.75;;;6.80;99.90;;;6.70;78.47;102348.19;5246222;28;20048;-72
2022/01/30 08:50:33;;;;;;;10.02;1.83;;;6.80;99.90;;;6.71;79.24;102349.97;5245886;28;20049;-70
2022/01/30 08:53:05;;;;;;;7.72;2.55;;;6.80;99.90;;;6.77;78.75;102351.34;5246053;28;20071;-70
2022/01/30 08:55:37;;;;;;;13.57;1.92;;;6.80;99.90;;;6.78;79.06;102350.56;5245679;28;20132;-70
2022/01/30 08:58:09;;;;;;;11.63;1.90;;;6.90;99.90;;;7.37;86.89;102341.84;5245916;28;20045;-69
2022/01/30 09:00:44;;;;;;;9.85;2.25;;;7.30;99.90;;;7.46;79.29;102358.09;5245973;28;20188;-72
2022/01/30 09:03:17;;;;;;;7.07;1.42;;;7.50;99.90;;;7.28;77.43;102358.56;5246108;28;20052;-70
2022/01/30 09:05:49;;;;;;;6.28;1.77;;;7.50;99.90;;;7.16;76.91;102375.81;5245627;28;20080;-71
2022/01/30 09:08:21;;;;;;;13.82;2.08;;;7.40;99.90;;;7.10;77.16;102385.75;5246439;28;20049;-73
2022/01/30 09:10:54;;;;;;;13.35;2.22;;;7.30;99.90;;;7.22;79.43;102368.50;5246221;28;20046;-73
2022/01/30 09:13:26;;;;;;;10.20;1.48;;;7.30;99.90;;;8.11;86.65;102364.47;5246013;28;20135;-74
2022/01/30 09:15:59;;;;;;;9.98;1.58;;;7.90;99.90;;;8.87;81.04;102356.72;5246110;28;20048;-72
2022/01/30 09:18:32;;;;;;;8.93;1.63;;;8.70;99.90;;;9.59;78.19;102356.19;5246442;28;20049;-73
2022/01/30 09:21:05;;;;;;;9.35;1.55;;;9.40;99.90;;;10.37;73.71;102362.75;5245878;28;20076;-73
2022/01/30 09:23:37;;;;;;;13.18;1.67;;;10.20;99.90;;;10.92;67.10;102366.03;5245530;28;20489;-72
2022/01/30 09:26:09;;;;;;;12.55;2.25;;;10.80;99.90;;;11.18;66.08;102359.72;5246497;28;20485;-71
2022/01/30 09:28:41;;;;;;;6.53;1.75;;;11.10;99.90;;;11.47;64.61;102351.78;5245887;28;20051;-71
2022/01/30 09:31:13;;;;;;;8.55;1.75;;;11.50;99.70;;;11.57;62.87;102351.50;5245939;28;20048;-72
2022/01/30 09:33:47;;;;;;;9.70;2.05;;;11.60;97.70;;;11.56;62.31;102349.69;5245851;28;20404;-75
2022/01/30 09:36:19;;;;;;;14.65;1.90;;;11.70;97.70;;;11.18;60.21;102352.78;5245708;28;20045;-71
2022/01/30 09:38:52;;;;;;;12.85;1.70;;;11.50;94.40;;;10.45;60.58;102344.16;5245595;28;20059;-71
2022/01/30 09:41:26;;;;;;;9.82;2.22;;;10.90;94.20;;;9.84;62.58;102336.88;5245878;28;20051;-72
2022/01/30 09:44:00;;;;;;;9.48;1.48;;;10.30;96.20;;;9.28;64.29;102327.28;5247443;28;20404;-74
2022/01/30 09:46:33;;;;;;;9.13;1.42;;;9.80;97.70;;;8.94;65.71;102314.72;5249794;28;20127;-71
2022/01/30 09:49:08;;;;;;;12.85;2.28;;;9.30;99.00;;;8.89;69.32;102325.59;5249330;28;20449;-72
2022/01/30 09:51:42;;;;;;;10.13;2.05;;;9.10;99.90;;;8.87;67.93;102322.91;5249350;28;20075;-72
2022/01/30 09:54:15;;;;;;;16.10;2.25;;;9.10;99.90;;;8.71;67.88;102320.09;5248620;28;20056;-70
2022/01/30 09:56:47;;;;;;;9.07;2.28;;;8.90;99.90;;;9.46;79.23;102318.06;5249556;28;20048;-72
2022/01/30 09:59:19;;;;;;;12.57;2.22;;;9.40;99.90;;;9.72;71.23;102326.63;5249138;28;20054;-72
2022/01/30 10:01:51;;;;;;;14.73;2.08;;;9.80;99.90;;;9.44;68.19;102319.66;5249272;28;20136;-71
2022/01/30 10:04:24;;;;;;;10.85;1.90;;;9.70;99.90;;;9.03;66.99;102329.09;5248887;28;20052;-71
2022/01/30 10:07:02;;;;;;;13.02;1.90;;;9.30;99.90;;;8.80;68.14;102333.72;5249258;28;20056;-70
2022/01/30 10:09:37;;;;;;;16.77;2.00;;;9.10;99.90;;;8.60;68.22;102331.44;5249115;28;20166;-73
2022/01/30 10:12:16;;;;;;;9.95;2.00;;;8.80;99.90;;;8.52;68.94;102337.84;5249304;28;20482;-71
2022/01/30 10:14:50;;;;;;;18.90;2.33;;;8.70;99.90;;;8.57;69.98;102337.34;5248365;28;20694;-73
2022/01/30 10:17:30;;;;;;;15.50;1.65;;;8.60;99.90;;;8.73;68.49;102333.19;5248672;28;20062;-71
2022/01/30 10:20:13;;;;;;;9.02;2.35;;;8.70;99.90;;;8.75;68.64;102329.91;5248937;28;20055;-72
2022/01/30 10:22:53;;;;;;;11.52;1.63;;;8.70;99.90;;;9.25;75.27;102337.50;5249158;28;20493;-69
2022/01/30 10:25:27;;;;;;;15.45;2.00;;;9.00;99.90;;;9.47;67.25;102332.88;5248406;28;20049;-71
2022/01/30 10:28:12;;;;;;;11.05;2.55;;;9.40;99.90;;;9.29;65.92;102338.59;5248918;28;20051;-71
2022/01/30 10:30:47;;;;;;;14.35;2.33;;;9.30;99.90;;;9.23;65.46;102340.00;5248573;28;20045;-71
2022/01/30 10:33:20;;;;;;;;;;;9.30;99.90;;;9.05;65.95;102327.50;5249352;28;20082;-72
2022/01/30 10:35:56;;;;;;;15.40;2.35;;;9.10;99.90;;;8.97;66.46;102334.81;5232042;28;19940;-71
2022/01/30 10:38:33;;;;;;;10.55;2.08;;;9.00;99.90;;;9.10;65.92;102334.81;5247407;28;20127;-71
2022/01/30 10:41:12;;;;;;;12.07;1.77;;;9.10;99.90;;;9.11;64.83;102335.69;5248676;28;20420;-72
2022/01/30 10:43:58;;;;;;;12.48;1.88;;;9.10;99.90;;;9.14;64.92;102335.91;5236750;28;20440;-70
2022/01/30 10:46:32;;;;;;;9.68;2.05;;;9.10;99.90;;;9.29;65.03;102344.72;5245387;28;20075;-70
2022/01/30 10:49:10;;;;;;;13.88;1.92;;;9.20;99.90;;;9.39;63.48;102340.97;5248842;28;20049;-71
2022/01/30 10:51:55;;;;;;;14.02;2.10;;;9.30;99.50;;;9.26;62.81;102334.13;5248272;28;20055;-70
2022/01/30 10:54:32;;;;;;;9.70;1.92;;;9.20;98.90;;;9.15;63.48;102333.41;5247690;28;20066;-70
2022/01/30 10:57:06;;;;;;;7.45;1.48;;;9.20;99.60;;;9.18;64.08;102335.28;5247954;28;20052;-71
2022/01/30 10:59:43;;;;;;;12.23;2.50;;;9.20;99.60;;;9.28;63.68;102319.50;5248323;28;20127;-71
2022/01/30 11:02:18;;;;;;;10.73;3.10;;;9.30;99.30;;;9.18;61.08;102315.38;5247896;28;20064;-71
2022/01/30 11:05:02;;;;;;;13.43;2.40;;;9.30;97.20;;;9.13;60.53;102318.50;5230260;28;20409;-71
2022/01/30 11:07:41;;;;;;;18.52;2.40;;;9.20;96.30;;;9.06;59.92;102322.38;5227489;28;20494;-72
2022/01/30 11:10:23;;;;;;;9.05;1.75;;;9.20;95.50;;;9.07;59.66;102320.72;5228116;28;20494;-71
2022/01/30 11:13:08;;;;;;;16.45;2.03;;;9.20;95.30;;;9.14;59.94;102317.72;5227698;28;20049;-71
2022/01/30 11:15:43;;;;;;;16.33;2.13;;;9.20;95.70;;;9.16;59.65;102323.91;5226629;28;20417;-73
2022/01/30 11:18:15;;;;;;;15.93;2.45;;;9.20;95.60;;;9.17;59.18;102333.50;5227134;28;20048;-72
2022/01/30 11:20:48;;;;;;;14.95;2.67;;;9.20;95.10;;;9.01;61.02;102321.22;5227014;28;20107;-72
2022/01/30 11:23:23;;;;;;;11.90;2.35;;;9.10;96.50;;;8.85;61.46;102321.88;5244274;28;20478;-71
2022/01/30 11:25:55;;;;;;;16.13;2.35;;;9.00;96.80;;;8.71;61.81;102335.69;5233699;28;20057;-71